Time;durP1;ratioP1;P1;durP2;ratioP2;P2;SDS_P1;SDS_P2;PMS_P1;PMS_P2;Temp;Humidity;BMP_temperature;BMP_pressure;BME280_temperature;BME280_humidity;BME280_pressure;Samples;Min_cycle;Max_cycle;Signal;HPM_P1;HPM_P2
2021/08/06 00:01:37;;;;;;;0.60;0.57;;;;;;;;;;5025320;28;20135;-59
2021/08/06 00:04:03;;;;;;;0.50;0.50;;;;;;;;;;5025802;28;20108;-59
2021/08/06 00:06:29;;;;;;;0.57;0.57;;;;;;;;;;5025492;28;20045;-59
2021/08/06 00:08:55;;;;;;;0.50;0.50;;;;;;;;;;5025085;28;20545;-59
2021/08/06 00:11:26;;;;;;;0.40;0.40;;;;;;;;;;5025682;28;20082;-59
2021/08/06 00:13:52;;;;;;;0.40;0.40;;;;;;;;;;5025248;28;20131;-59
2021/08/06 00:16:18;;;;;;;1.38;0.55;;;;;;;;;;5025455;28;20025;-59
2021/08/06 00:18:44;;;;;;;0.73;0.40;;;;;;;;;;5032590;28;20395;-59
2021/08/06 00:21:10;;;;;;;0.40;0.40;;;;;;;;;;5046177;28;20449;-59
2021/08/06 00:23:36;;;;;;;0.40;0.30;;;;;;;;;;5030426;28;20029;-59
2021/08/06 00:26:02;;;;;;;0.50;0.50;;;;;;;;;;5025652;28;20026;-59
2021/08/06 00:28:28;;;;;;;0.30;0.30;;;;;;;;;;5025446;28;20172;-59
2021/08/06 00:30:54;;;;;;;0.30;0.30;;;;;;;;;;5025134;28;20112;-59
2021/08/06 00:33:20;;;;;;;0.93;0.32;;;;;;;;;;5025164;28;20090;-59
2021/08/06 00:35:46;;;;;;;0.55;0.45;;;;;;;;;;5024020;28;20033;-59
2021/08/06 00:38:12;;;;;;;0.30;0.30;;;;;;;;;;5025761;28;20094;-58
2021/08/06 00:40:38;;;;;;;0.32;0.32;;;;;;;;;;5024975;28;20464;-59
2021/08/06 00:43:05;;;;;;;0.47;0.43;;;;;;;;;;5025101;28;20036;-59
2021/08/06 00:45:31;;;;;;;0.40;0.40;;;;;;;;;;5024468;28;20388;-59
2021/08/06 00:47:57;;;;;;;0.35;0.35;;;;;;;;;;5024727;28;20037;-59
2021/08/06 00:50:23;;;;;;;0.40;0.40;;;;;;;;;;5025176;28;20026;-59
2021/08/06 00:52:50;;;;;;;0.40;0.40;;;;;;;;;;5024173;28;20534;-59
2021/08/06 00:55:17;;;;;;;0.30;0.30;;;;;;;;;;5024697;28;20032;-59
2021/08/06 00:57:43;;;;;;;0.30;0.30;;;;;;;;;;5040811;28;20057;-59
2021/08/06 01:00:09;;;;;;;0.40;0.40;;;;;;;;;;5044806;28;20033;-59
2021/08/06 01:02:46;;;;;;;0.40;0.40;;;;;;;;;;5040867;28;20021;-59
2021/08/06 01:05:15;;;;;;;0.52;0.50;;;;;;;;;;5025436;28;20034;-59
2021/08/06 01:07:53;;;;;;;0.40;0.40;;;;;;;;;;5041110;28;20029;-59
2021/08/06 01:10:22;;;;;;;2.05;0.40;;;;;;;;;;5044613;28;20047;-59
2021/08/06 01:12:59;;;;;;;0.40;0.40;;;;;;;;;;5040495;28;20029;-59
2021/08/06 01:15:26;;;;;;;0.40;0.40;;;;;;;;;;5024825;28;20040;-59
2021/08/06 01:17:53;;;;;;;0.90;0.60;;;;;;;;;;5024467;28;20112;-59
2021/08/06 01:20:36;;;;;;;0.40;0.40;;;;;;;;;;5025518;28;20087;-59
2021/08/06 01:23:05;;;;;;;0.65;0.63;;;;;;;;;;5024242;28;20037;-59
2021/08/06 01:25:31;;;;;;;0.50;0.50;;;;;;;;;;5040462;28;20033;-58
2021/08/06 01:27:58;;;;;;;0.50;0.50;;;;;;;;;;5044563;28;20033;-59
2021/08/06 01:30:24;;;;;;;0.35;0.35;;;;;;;;;;5043842;28;20039;-59
2021/08/06 01:32:54;;;;;;;0.40;0.40;;;;;;;;;;5038284;28;20021;-58
2021/08/06 01:35:21;;;;;;;0.88;0.50;;;;;;;;;;5022969;28;20099;-58
2021/08/06 01:37:47;;;;;;;0.38;0.38;;;;;;;;;;5039188;28;20454;-59
2021/08/06 01:40:13;;;;;;;0.30;0.30;;;;;;;;;;5045013;28;20029;-59
2021/08/06 01:42:46;;;;;;;0.40;0.40;;;;;;;;;;5042166;28;20028;-59
2021/08/06 01:45:15;;;;;;;1.05;0.50;;;;;;;;;;5025234;28;20033;-58
2021/08/06 01:47:47;;;;;;;0.55;0.40;;;;;;;;;;5026216;28;20087;-59
2021/08/06 01:50:15;;;;;;;0.40;0.40;;;;;;;;;;5035077;28;20052;-59
2021/08/06 01:52:49;;;;;;;0.35;0.35;;;;;;;;;;5045460;28;20035;-59
2021/08/06 01:55:16;;;;;;;0.73;0.50;;;;;;;;;;5037155;28;20032;-58
2021/08/06 01:57:44;;;;;;;1.40;0.60;;;;;;;;;;5036234;28;20087;-59
2021/08/06 02:00:11;;;;;;;0.43;0.40;;;;;;;;;;5027924;28;20087;-58
2021/08/06 02:02:37;;;;;;;0.40;0.38;;;;;;;;;;5027610;28;20025;-58
2021/08/06 02:05:04;;;;;;;0.50;0.50;;;;;;;;;;5027616;28;20051;-59
2021/08/06 02:07:30;;;;;;;0.65;0.63;;;;;;;;;;5028402;28;20564;-59
2021/08/06 02:09:56;;;;;;;0.93;0.70;;;;;;;;;;5027324;28;20068;-58
2021/08/06 02:12:22;;;;;;;2.35;0.60;;;;;;;;;;5028000;28;20057;-58
2021/08/06 02:14:48;;;;;;;0.60;0.60;;;;;;;;;;5026022;28;20037;-58
2021/08/06 02:17:14;;;;;;;0.45;0.45;;;;;;;;;;5031213;28;20032;-58
2021/08/06 02:19:42;;;;;;;0.65;0.60;;;;;;;;;;5047957;28;20448;-58
2021/08/06 02:22:09;;;;;;;0.35;0.35;;;;;;;;;;5046421;28;20041;-58
2021/08/06 02:24:36;;;;;;;0.40;0.40;;;;;;;;;;5047083;28;20300;-58
2021/08/06 02:27:03;;;;;;;0.47;0.47;;;;;;;;;;5044470;28;20033;-58
2021/08/06 02:29:30;;;;;;;0.35;0.35;;;;;;;;;;5027441;28;20181;-58
2021/08/06 02:31:58;;;;;;;0.50;0.50;;;;;;;;;;5027381;28;20037;-59
2021/08/06 02:34:24;;;;;;;0.90;0.70;;;;;;;;;;5027287;28;20030;-58
2021/08/06 02:36:52;;;;;;;0.55;0.55;;;;;;;;;;5026634;28;20041;-58
2021/08/06 02:39:20;;;;;;;0.57;0.52;;;;;;;;;;5027204;28;20495;-58
2021/08/06 02:41:46;;;;;;;0.70;0.70;;;;;;;;;;5026627;28;20022;-59
2021/08/06 02:44:13;;;;;;;0.90;0.80;;;;;;;;;;5027622;28;20025;-58
2021/08/06 02:46:39;;;;;;;0.93;0.63;;;;;;;;;;5026765;28;20099;-58
2021/08/06 02:49:05;;;;;;;0.60;0.60;;;;;;;;;;5045538;28;20051;-58
2021/08/06 02:51:31;;;;;;;1.33;0.70;;;;;;;;;;5046668;28;20025;-59
2021/08/06 02:53:57;;;;;;;0.52;0.52;;;;;;;;;;5046641;28;20075;-58
2021/08/06 02:56:24;;;;;;;0.43;0.43;;;;;;;;;;5046689;28;20191;-58
2021/08/06 02:58:50;;;;;;;0.77;0.50;;;;;;;;;;5026729;28;20029;-59
2021/08/06 03:01:16;;;;;;;0.55;0.55;;;;;;;;;;5026553;28;20030;-58
2021/08/06 03:03:42;;;;;;;0.68;0.68;;;;;;;;;;5027201;28;20097;-58
2021/08/06 03:06:08;;;;;;;0.80;0.60;;;;;;;;;;5026786;28;20508;-58
2021/08/06 03:08:35;;;;;;;1.20;1.10;;;;;;;;;;5026170;28;20109;-58
2021/08/06 03:11:01;;;;;;;0.73;0.73;;;;;;;;;;5026365;28;20033;-58
2021/08/06 03:13:28;;;;;;;0.70;0.70;;;;;;;;;;5026790;28;20033;-58
2021/08/06 03:15:54;;;;;;;1.08;0.80;;;;;;;;;;5023900;28;20041;-58
2021/08/06 03:18:20;;;;;;;1.00;0.85;;;;;;;;;;5028344;28;20033;-58
2021/08/06 03:20:46;;;;;;;0.90;0.60;;;;;;;;;;5025854;28;20049;-58
2021/08/06 03:23:12;;;;;;;0.65;0.65;;;;;;;;;;5026649;28;20518;-58
2021/08/06 03:25:39;;;;;;;0.80;0.80;;;;;;;;;;5026164;28;20029;-58
2021/08/06 03:28:05;;;;;;;1.20;0.73;;;;;;;;;;5041005;28;20040;-58
2021/08/06 03:30:31;;;;;;;0.80;0.80;;;;;;;;;;5035133;28;20057;-58
2021/08/06 03:32:58;;;;;;;1.65;0.80;;;;;;;;;;5026430;28;20064;-58
2021/08/06 03:35:24;;;;;;;0.90;0.90;;;;;;;;;;5026053;28;20465;-58
2021/08/06 03:37:51;;;;;;;0.80;0.70;;;;;;;;;;5025582;28;20500;-58
2021/08/06 03:40:17;;;;;;;1.00;0.90;;;;;;;;;;5024709;28;20029;-58
2021/08/06 03:42:43;;;;;;;0.65;0.60;;;;;;;;;;5026452;28;20053;-58
2021/08/06 03:45:09;;;;;;;0.90;0.68;;;;;;;;;;5024288;28;20029;-58
2021/08/06 03:47:36;;;;;;;0.80;0.80;;;;;;;;;;5025160;28;20048;-58
2021/08/06 03:50:03;;;;;;;0.60;0.60;;;;;;;;;;5026010;28;20025;-58
2021/08/06 03:52:31;;;;;;;0.82;0.60;;;;;;;;;;5024591;28;20053;-58
2021/08/06 03:54:57;;;;;;;1.23;1.10;;;;;;;;;;5025818;28;20040;-58
2021/08/06 03:57:23;;;;;;;1.10;0.93;;;;;;;;;;5025605;28;20037;-58
2021/08/06 03:59:49;;;;;;;1.10;0.85;;;;;;;;;;5025279;28;20534;-58
2021/08/06 04:02:15;;;;;;;0.80;0.70;;;;;;;;;;5026022;28;20108;-58
2021/08/06 04:04:41;;;;;;;0.73;0.60;;;;;;;;;;5026046;28;20047;-58
2021/08/06 04:07:07;;;;;;;0.70;0.68;;;;;;;;;;5025298;28;20543;-58
2021/08/06 04:09:33;;;;;;;0.95;0.75;;;;;;;;;;5025001;28;20604;-58
2021/08/06 04:11:59;;;;;;;1.00;0.77;;;;;;;;;;5025753;28;20030;-58
2021/08/06 04:14:25;;;;;;;0.73;0.73;;;;;;;;;;5025525;28;20029;-58
2021/08/06 04:16:52;;;;;;;1.30;0.88;;;;;;;;;;5026204;28;20136;-57
2021/08/06 04:19:18;;;;;;;1.67;0.80;;;;;;;;;;5025958;28;20028;-58
2021/08/06 04:21:44;;;;;;;1.85;0.77;;;;;;;;;;5025873;28;20026;-58
2021/08/06 04:24:10;;;;;;;0.70;0.70;;;;;;;;;;5025986;28;20029;-57
2021/08/06 04:26:37;;;;;;;0.90;0.70;;;;;;;;;;5023804;28;20083;-58
2021/08/06 04:29:03;;;;;;;0.60;0.60;;;;;;;;;;5024234;28;20037;-58
2021/08/06 04:31:29;;;;;;;1.15;1.00;;;;;;;;;;5025565;28;20314;-58
2021/08/06 04:33:55;;;;;;;0.93;0.77;;;;;;;;;;5025054;28;20057;-58
2021/08/06 04:36:21;;;;;;;1.27;0.95;;;;;;;;;;5025054;28;20064;-58
2021/08/06 04:38:47;;;;;;;0.55;0.52;;;;;;;;;;5025747;28;20542;-58
2021/08/06 04:41:13;;;;;;;0.70;0.50;;;;;;;;;;5026101;28;20029;-58
2021/08/06 04:43:39;;;;;;;0.60;0.60;;;;;;;;;;5033622;28;20025;-57
2021/08/06 04:46:05;;;;;;;1.08;0.60;;;;;;;;;;5030748;28;20592;-58
2021/08/06 04:48:31;;;;;;;0.43;0.43;;;;;;;;;;5030854;28;20026;-58
2021/08/06 04:50:57;;;;;;;0.40;0.40;;;;;;;;;;5026685;28;20029;-58
2021/08/06 04:53:23;;;;;;;0.43;0.40;;;;;;;;;;5026611;28;20617;-58
2021/08/06 04:55:49;;;;;;;0.65;0.65;;;;;;;;;;5026162;28;20025;-58
2021/08/06 04:58:15;;;;;;;1.10;0.70;;;;;;;;;;5026544;28;20365;-58
2021/08/06 05:00:41;;;;;;;0.60;0.60;;;;;;;;;;5031934;28;20479;-58
2021/08/06 05:03:07;;;;;;;0.50;0.50;;;;;;;;;;5043681;28;20051;-58
2021/08/06 05:05:33;;;;;;;0.70;0.70;;;;;;;;;;5042462;28;20032;-58
2021/08/06 05:07:59;;;;;;;1.35;0.70;;;;;;;;;;5037462;28;20051;-57
2021/08/06 05:10:26;;;;;;;1.33;0.57;;;;;;;;;;5025318;28;20029;-58
2021/08/06 05:12:52;;;;;;;0.52;0.40;;;;;;;;;;5025751;28;20116;-58
2021/08/06 05:15:19;;;;;;;0.90;0.60;;;;;;;;;;5026043;28;20053;-57
2021/08/06 05:17:45;;;;;;;0.70;0.70;;;;;;;;;;5026473;28;20041;-58
2021/08/06 05:20:11;;;;;;;1.48;0.90;;;;;;;;;;5026039;28;20032;-58
2021/08/06 05:22:37;;;;;;;0.60;0.60;;;;;;;;;;5027257;28;20038;-58
2021/08/06 05:25:03;;;;;;;0.40;0.40;;;;;;;;;;5030098;28;20017;-57
2021/08/06 05:27:29;;;;;;;0.65;0.65;;;;;;;;;;5029936;28;20055;-57
2021/08/06 05:29:56;;;;;;;0.73;0.52;;;;;;;;;;5030731;28;20037;-57
2021/08/06 05:32:22;;;;;;;0.63;0.55;;;;;;;;;;5030052;28;20503;-57
2021/08/06 05:34:48;;;;;;;0.40;0.40;;;;;;;;;;5029651;28;20516;-57
2021/08/06 05:37:14;;;;;;;0.57;0.50;;;;;;;;;;5030647;28;20547;-57
2021/08/06 05:39:40;;;;;;;0.50;0.50;;;;;;;;;;5029458;28;20037;-57
2021/08/06 05:42:06;;;;;;;0.60;0.40;;;;;;;;;;5030016;28;20029;-58
2021/08/06 05:44:32;;;;;;;0.30;0.30;;;;;;;;;;5044607;28;20449;-58
2021/08/06 05:46:58;;;;;;;0.73;0.40;;;;;;;;;;5049715;28;20031;-58
2021/08/06 05:49:24;;;;;;;0.90;0.50;;;;;;;;;;5036274;28;20033;-58
2021/08/06 05:51:50;;;;;;;0.40;0.40;;;;;;;;;;5029630;28;20086;-58
2021/08/06 05:54:16;;;;;;;0.50;0.40;;;;;;;;;;5029822;28;20437;-58
2021/08/06 05:56:42;;;;;;;0.55;0.50;;;;;;;;;;5033174;28;20734;-58
2021/08/06 05:59:08;;;;;;;0.40;0.40;;;;;;;;;;5036109;28;20484;-58
2021/08/06 06:01:34;;;;;;;0.50;0.50;;;;;;;;;;5039278;28;20449;-58
2021/08/06 06:04:00;;;;;;;0.30;0.30;;;;;;;;;;5043181;28;20033;-57
2021/08/06 06:06:26;;;;;;;0.55;0.55;;;;;;;;;;5055745;28;20029;-58
2021/08/06 06:08:52;;;;;;;0.50;0.50;;;;;;;;;;5045362;28;20025;-58
2021/08/06 06:11:19;;;;;;;0.40;0.40;;;;;;;;;;5050147;28;20028;-58
2021/08/06 06:13:47;;;;;;;0.50;0.50;;;;;;;;;;5038433;28;20056;-58
2021/08/06 06:16:14;;;;;;;0.30;0.30;;;;;;;;;;5040705;28;20032;-58
2021/08/06 06:18:40;;;;;;;0.47;0.47;;;;;;;;;;5028050;28;20041;-58
2021/08/06 06:21:06;;;;;;;0.60;0.43;;;;;;;;;;5028918;28;20034;-58
2021/08/06 06:23:32;;;;;;;0.32;0.30;;;;;;;;;;5041131;28;20033;-58
2021/08/06 06:26:00;;;;;;;0.50;0.47;;;;;;;;;;5048798;28;20593;-58
2021/08/06 06:28:26;;;;;;;1.17;0.40;;;;;;;;;;5046498;28;20036;-57
2021/08/06 06:30:52;;;;;;;0.63;0.45;;;;;;;;;;5047411;28;20205;-58
2021/08/06 06:33:18;;;;;;;0.40;0.30;;;;;;;;;;5046411;28;20033;-57
2021/08/06 06:35:44;;;;;;;0.57;0.50;;;;;;;;;;5048375;28;20391;-57
2021/08/06 06:38:10;;;;;;;0.50;0.45;;;;;;;;;;5049159;28;20051;-57
2021/08/06 06:40:36;;;;;;;0.80;0.40;;;;;;;;;;5047061;28;20475;-58
2021/08/06 06:43:02;;;;;;;0.55;0.50;;;;;;;;;;5048507;28;20104;-58
2021/08/06 06:45:28;;;;;;;1.15;0.40;;;;;;;;;;5048438;28;20020;-57
2021/08/06 06:47:54;;;;;;;0.50;0.32;;;;;;;;;;5040285;28;20155;-58
2021/08/06 06:50:22;;;;;;;0.52;0.30;;;;;;;;;;5044593;28;20040;-57
2021/08/06 06:52:48;;;;;;;0.52;0.40;;;;;;;;;;5044576;28;20029;-58
2021/08/06 06:55:15;;;;;;;1.00;0.40;;;;;;;;;;5045183;28;20081;-58
2021/08/06 06:57:42;;;;;;;0.35;0.30;;;;;;;;;;5050109;28;20037;-57
2021/08/06 07:00:09;;;;;;;0.75;0.50;;;;;;;;;;5040159;28;20087;-57
2021/08/06 07:02:35;;;;;;;0.60;0.40;;;;;;;;;;5037807;28;20660;-57
2021/08/06 07:05:01;;;;;;;0.30;0.30;;;;;;;;;;5035650;28;20125;-58
2021/08/06 07:07:28;;;;;;;0.30;0.30;;;;;;;;;;5032792;28;20101;-58
2021/08/06 07:09:54;;;;;;;1.10;0.40;;;;;;;;;;5026177;28;20535;-58
2021/08/06 07:12:20;;;;;;;0.50;0.50;;;;;;;;;;5026925;28;20029;-58
2021/08/06 07:14:46;;;;;;;0.40;0.40;;;;;;;;;;5026310;28;20045;-58
2021/08/06 07:17:12;;;;;;;0.38;0.38;;;;;;;;;;5032099;28;20041;-58
2021/08/06 07:19:38;;;;;;;0.28;0.28;;;;;;;;;;5034099;28;20380;-58
2021/08/06 07:22:04;;;;;;;0.73;0.50;;;;;;;;;;5026781;28;20487;-59
2021/08/06 07:24:30;;;;;;;0.50;0.40;;;;;;;;;;5037497;28;20032;-58
2021/08/06 07:26:56;;;;;;;0.50;0.50;;;;;;;;;;5027805;28;20557;-58
2021/08/06 07:29:22;;;;;;;0.95;0.52;;;;;;;;;;5032771;28;20029;-59
2021/08/06 07:31:48;;;;;;;0.45;0.45;;;;;;;;;;5030797;28;20029;-56
2021/08/06 07:34:15;;;;;;;0.30;0.30;;;;;;;;;;5028365;28;20084;-56
2021/08/06 07:36:41;;;;;;;0.73;0.50;;;;;;;;;;5037824;28;20032;-57
2021/08/06 07:39:07;;;;;;;0.30;0.30;;;;;;;;;;5046285;28;20025;-57
2021/08/06 07:41:35;;;;;;;0.40;0.40;;;;;;;;;;5045775;28;20053;-57
2021/08/06 07:44:01;;;;;;;0.63;0.43;;;;;;;;;;5045923;28;20021;-58
2021/08/06 07:46:27;;;;;;;0.47;0.40;;;;;;;;;;5038480;28;20482;-58
2021/08/06 07:48:53;;;;;;;0.52;0.30;;;;;;;;;;5026052;28;20018;-58
2021/08/06 07:51:19;;;;;;;0.20;0.20;;;;;;;;;;5026256;28;20626;-57
2021/08/06 07:53:46;;;;;;;0.45;0.40;;;;;;;;;;5025730;28;20033;-57
2021/08/06 07:56:13;;;;;;;0.43;0.40;;;;;;;;;;5026750;28;20072;-57
2021/08/06 07:58:40;;;;;;;0.30;0.30;;;;;;;;;;5025240;28;20025;-55
2021/08/06 08:01:06;;;;;;;0.30;0.30;;;;;;;;;;5025746;28;20034;-56
2021/08/06 08:03:32;;;;;;;0.45;0.40;;;;;;;;;;5031354;28;20112;-56
2021/08/06 08:06:00;;;;;;;0.63;0.50;;;;;;;;;;5042726;28;20035;-57
2021/08/06 08:08:27;;;;;;;0.30;0.30;;;;;;;;;;5045965;28;20025;-56
2021/08/06 08:10:53;;;;;;;0.85;0.50;;;;;;;;;;5044867;28;20028;-54
2021/08/06 08:13:19;;;;;;;0.68;0.40;;;;;;;;;;5044678;28;20025;-57
2021/08/06 08:15:46;;;;;;;0.63;0.50;;;;;;;;;;5034229;28;20045;-56
2021/08/06 08:18:12;;;;;;;0.40;0.40;;;;;;;;;;5026539;28;20017;-57
2021/08/06 08:20:38;;;;;;;0.57;0.50;;;;;;;;;;5025256;28;20416;-57
2021/08/06 08:23:04;;;;;;;0.75;0.43;;;;;;;;;;5027588;28;20024;-57
2021/08/06 08:25:30;;;;;;;0.68;0.57;;;;;;;;;;5025822;28;20049;-56
2021/08/06 08:27:56;;;;;;;1.08;0.57;;;;;;;;;;5034312;28;20018;-56
2021/08/06 08:30:22;;;;;;;0.68;0.52;;;;;;;;;;5028470;28;20033;-57
2021/08/06 08:32:48;;;;;;;0.50;0.43;;;;;;;;;;5025652;28;20460;-49
2021/08/06 08:35:14;;;;;;;1.13;0.50;;;;;;;;;;5031236;28;20055;-55
2021/08/06 08:37:41;;;;;;;0.47;0.47;;;;;;;;;;5044069;28;21579;-54
2021/08/06 08:40:08;;;;;;;0.90;0.65;;;;;;;;;;5029813;28;20044;-53
2021/08/06 08:42:35;;;;;;;0.40;0.40;;;;;;;;;;5046727;28;20044;-53
2021/08/06 08:45:02;;;;;;;0.30;0.30;;;;;;;;;;5047328;28;20028;-55
2021/08/06 08:47:30;;;;;;;0.70;0.70;;;;;;;;;;5039016;28;20018;-55
2021/08/06 08:49:57;;;;;;;0.70;0.43;;;;;;;;;;5035853;28;20032;-54
2021/08/06 08:52:23;;;;;;;0.50;0.50;;;;;;;;;;5045685;28;20078;-53
2021/08/06 08:54:49;;;;;;;0.60;0.57;;;;;;;;;;5045895;28;20033;-53
2021/08/06 08:57:19;;;;;;;0.90;0.50;;;;;;;;;;5039574;28;20033;-53
2021/08/06 08:59:45;;;;;;;0.50;0.50;;;;;;;;;;5030560;28;20216;-49
2021/08/06 09:02:11;;;;;;;0.50;0.38;;;;;;;;;;5034310;28;20128;-49
2021/08/06 09:04:38;;;;;;;0.45;0.45;;;;;;;;;;5026443;28;20026;-54
2021/08/06 09:07:04;;;;;;;0.47;0.47;;;;;;;;;;5027044;28;20018;-51
2021/08/06 09:09:30;;;;;;;0.65;0.50;;;;;;;;;;5025746;28;20033;-54
2021/08/06 09:12:07;;;;;;;0.80;0.70;;;;;;;;;;5038265;28;20104;-53
2021/08/06 09:14:33;;;;;;;0.52;0.52;;;;;;;;;;5026059;28;20029;-52
2021/08/06 09:16:59;;;;;;;0.88;0.65;;;;;;;;;;5028656;28;20128;-53
2021/08/06 09:19:26;;;;;;;0.60;0.60;;;;;;;;;;5046298;28;20135;-53
2021/08/06 09:22:08;;;;;;;1.05;0.50;;;;;;;;;;5045740;28;20029;-54
2021/08/06 09:24:34;;;;;;;0.90;0.50;;;;;;;;;;5031713;28;20513;-51
2021/08/06 09:27:00;;;;;;;0.40;0.40;;;;;;;;;;5025856;28;20022;-53
2021/08/06 09:29:26;;;;;;;0.40;0.40;;;;;;;;;;5026027;28;20048;-53
2021/08/06 09:31:52;;;;;;;1.27;0.60;;;;;;;;;;5025766;28;20087;-54
2021/08/06 09:34:24;;;;;;;0.50;0.50;;;;;;;;;;5026027;28;20136;-53
2021/08/06 09:36:59;;;;;;;0.98;0.50;;;;;;;;;;5028688;28;20444;-53
2021/08/06 09:39:26;;;;;;;1.05;0.60;;;;;;;;;;5025700;28;20029;-51
2021/08/06 09:41:52;;;;;;;1.90;0.95;;;;;;;;;;5025262;28;20022;-53
2021/08/06 09:44:18;;;;;;;0.88;0.70;;;;;;;;;;5025759;28;20108;-54
2021/08/06 09:46:45;;;;;;;0.88;0.70;;;;;;;;;;5028621;28;20056;-53
2021/08/06 09:49:12;;;;;;;1.10;0.50;;;;;;;;;;5031995;28;20036;-54
2021/08/06 09:51:39;;;;;;;1.30;0.70;;;;;;;;;;5032135;28;20021;-51
2021/08/06 09:54:18;;;;;;;0.70;0.57;;;;;;;;;;5025857;28;20514;-52
2021/08/06 09:56:44;;;;;;;0.70;0.50;;;;;;;;;;5026122;28;20021;-51
2021/08/06 09:59:10;;;;;;;0.45;0.40;;;;;;;;;;5026877;28;20045;-51
2021/08/06 10:01:38;;;;;;;0.75;0.40;;;;;;;;;;5025525;28;20030;-53
2021/08/06 10:04:16;;;;;;;0.68;0.50;;;;;;;;;;5025809;28;20397;-51
2021/08/06 10:06:56;;;;;;;1.20;0.50;;;;;;;;;;5026160;28;20113;-52
2021/08/06 10:09:23;;;;;;;0.73;0.40;;;;;;;;;;5029410;28;20025;-53
2021/08/06 10:11:49;;;;;;;1.73;0.60;;;;;;;;;;5028344;28;20048;-54
2021/08/06 10:14:15;;;;;;;0.82;0.60;;;;;;;;;;5029179;28;20025;-52
2021/08/06 10:16:42;;;;;;;1.00;0.60;;;;;;;;;;5029501;28;20032;-52
2021/08/06 10:19:08;;;;;;;0.40;0.40;;;;;;;;;;5032338;28;20025;-52
2021/08/06 10:21:34;;;;;;;0.75;0.57;;;;;;;;;;5030156;28;20055;-54
2021/08/06 10:24:00;;;;;;;0.73;0.73;;;;;;;;;;5042274;28;20029;-52
2021/08/06 10:26:27;;;;;;;0.95;0.60;;;;;;;;;;5030896;28;20475;-53
2021/08/06 10:28:53;;;;;;;1.05;0.55;;;;;;;;;;5038234;28;20017;-53
2021/08/06 10:31:24;;;;;;;2.00;0.57;;;;;;;;;;5032248;28;20541;-53
2021/08/06 10:34:09;;;;;;;1.95;0.80;;;;;;;;;;5035824;28;20021;-53
2021/08/06 10:36:45;;;;;;;0.63;0.47;;;;;;;;;;5030941;28;20033;-52
2021/08/06 10:39:30;;;;;;;1.05;0.55;;;;;;;;;;5038759;28;20058;-53
2021/08/06 10:41:57;;;;;;;1.08;0.65;;;;;;;;;;5031374;28;20040;-50
2021/08/06 10:44:23;;;;;;;1.15;0.60;;;;;;;;;;5045959;28;20040;-51
2021/08/06 10:47:05;;;;;;;2.53;0.85;;;;;;;;;;5039777;28;20053;-52
2021/08/06 10:49:32;;;;;;;1.42;0.75;;;;;;;;;;5046086;28;20025;-52
2021/08/06 10:52:11;;;;;;;2.55;1.00;;;;;;;;;;5047367;28;20029;-50
2021/08/06 10:54:37;;;;;;;2.55;1.00;;;;;;;;;;5045455;28;20353;-49
2021/08/06 10:57:13;;;;;;;1.70;0.65;;;;;;;;;;5035340;28;20108;-52
2021/08/06 10:59:41;;;;;;;0.70;0.70;;;;;;;;;;5028560;28;20057;-51
2021/08/06 11:02:27;;;;;;;1.05;0.63;;;;;;;;;;5033814;28;20021;-51
2021/08/06 11:04:53;;;;;;;1.08;0.50;;;;;;;;;;5030189;28;20112;-49
2021/08/06 11:07:32;;;;;;;0.50;0.50;;;;;;;;;;5033430;28;20049;-52
2021/08/06 11:09:59;;;;;;;0.60;0.60;;;;;;;;;;5036760;28;20043;-54
2021/08/06 11:12:32;;;;;;;1.30;0.60;;;;;;;;;;5042713;28;20116;-52
2021/08/06 11:15:05;;;;;;;0.50;0.43;;;;;;;;;;5028444;28;20060;-54
2021/08/06 11:17:44;;;;;;;0.60;0.53;;;;;;;;;;5030094;28;20029;-54
2021/08/06 11:20:10;;;;;;;1.30;0.60;;;;;;;;;;5032846;28;20327;-52
2021/08/06 11:22:42;;;;;;;1.17;0.70;;;;;;;;;;5035954;28;20037;-53
2021/08/06 11:25:15;;;;;;;0.95;0.60;;;;;;;;;;5027492;28;20030;-53
2021/08/06 11:27:42;;;;;;;2.20;1.00;;;;;;;;;;5030420;28;20024;-54
2021/08/06 11:30:09;;;;;;;1.15;0.60;;;;;;;;;;5031195;28;20060;-49
2021/08/06 11:32:54;;;;;;;1.08;0.73;;;;;;;;;;5030483;28;20171;-53
2021/08/06 11:35:22;;;;;;;1.65;0.90;;;;;;;;;;5028848;28;20451;-51
2021/08/06 11:37:58;;;;;;;0.75;0.75;;;;;;;;;;5028727;28;20025;-53
2021/08/06 11:40:28;;;;;;;0.70;0.63;;;;;;;;;;5027664;28;20021;-52
2021/08/06 11:42:54;;;;;;;2.13;0.70;;;;;;;;;;5032527;28;20101;-54
2021/08/06 11:45:30;;;;;;;0.47;0.47;;;;;;;;;;5043305;28;20028;-54
2021/08/06 11:48:00;;;;;;;0.50;0.50;;;;;;;;;;5041843;28;20036;-55
2021/08/06 11:50:40;;;;;;;1.35;0.50;;;;;;;;;;5036087;28;20043;-54
2021/08/06 11:53:12;;;;;;;1.33;0.68;;;;;;;;;;5030969;28;20050;-55
2021/08/06 11:55:38;;;;;;;0.50;0.40;;;;;;;;;;5035573;28;20525;-54
2021/08/06 11:58:04;;;;;;;0.40;0.40;;;;;;;;;;5036580;28;20115;-51
2021/08/06 12:00:32;;;;;;;1.45;0.70;;;;;;;;;;5034210;28;20034;-52
2021/08/06 12:03:06;;;;;;;1.77;0.80;;;;;;;;;;5046150;28;20093;-53
2021/08/06 12:05:32;;;;;;;;;;;;;;;;;;5047888;28;20025;-54
2021/08/06 12:07:58;;;;;;;1.42;0.70;;;;;;;;;;5046568;28;19905;-53
2021/08/06 12:10:26;;;;;;;2.35;1.15;;;;;;;;;;5045634;28;20056;-51
2021/08/06 12:12:53;;;;;;;2.03;1.05;;;;;;;;;;5045759;28;20459;-53
2021/08/06 12:15:22;;;;;;;0.90;0.70;;;;;;;;;;5046202;28;20491;-54
2021/08/06 12:17:49;;;;;;;0.82;0.70;;;;;;;;;;5045770;28;20025;-51
2021/08/06 12:20:34;;;;;;;0.60;0.50;;;;;;;;;;5031920;28;20041;-53
2021/08/06 12:23:01;;;;;;;1.25;0.70;;;;;;;;;;5030118;28;20029;-52
2021/08/06 12:25:28;;;;;;;1.23;0.70;;;;;;;;;;5044913;28;20503;-50
2021/08/06 12:27:54;;;;;;;1.50;0.57;;;;;;;;;;5043208;28;20411;-54
2021/08/06 12:30:25;;;;;;;0.50;0.45;;;;;;;;;;5030973;28;20460;-52
2021/08/06 12:32:51;;;;;;;0.75;0.57;;;;;;;;;;5026814;28;20095;-53
2021/08/06 12:35:21;;;;;;;1.58;0.50;;;;;;;;;;5035154;28;20038;-51
2021/08/06 12:37:48;;;;;;;1.02;0.88;;;;;;;;;;5040505;28;20058;-53
2021/08/06 12:40:14;;;;;;;1.38;0.80;;;;;;;;;;5029982;28;20030;-53
2021/08/06 12:42:40;;;;;;;1.08;0.70;;;;;;;;;;5033949;28;20044;-53
2021/08/06 12:45:10;;;;;;;1.02;0.60;;;;;;;;;;5034361;28;20072;-52
2021/08/06 12:47:43;;;;;;;0.57;0.57;;;;;;;;;;5026379;28;20065;-54
2021/08/06 12:50:10;;;;;;;0.60;0.60;;;;;;;;;;5030986;28;20030;-54
2021/08/06 12:52:37;;;;;;;1.35;0.68;;;;;;;;;;5037895;28;20037;-54
2021/08/06 12:55:06;;;;;;;0.90;0.50;;;;;;;;;;5035888;28;20037;-53
2021/08/06 12:57:39;;;;;;;0.70;0.50;;;;;;;;;;5028164;28;20025;-54
2021/08/06 13:00:16;;;;;;;1.87;0.63;;;;;;;;;;5029617;28;20033;-56
2021/08/06 13:02:42;;;;;;;1.40;0.85;;;;;;;;;;5039895;28;20056;-55
2021/08/06 13:05:12;;;;;;;0.82;0.70;;;;;;;;;;5037881;28;20564;-54
2021/08/06 13:07:39;;;;;;;1.58;0.80;;;;;;;;;;5030787;28;20030;-49
2021/08/06 13:10:28;;;;;;;0.73;0.70;;;;;;;;;;5028855;28;20569;-53
2021/08/06 13:12:55;;;;;;;1.55;0.77;;;;;;;;;;5038016;28;20562;-52
2021/08/06 13:15:21;;;;;;;0.60;0.60;;;;;;;;;;5030468;28;20039;-53
2021/08/06 13:17:47;;;;;;;0.82;0.60;;;;;;;;;;5031328;28;20128;-53
2021/08/06 13:20:13;;;;;;;0.50;0.30;;;;;;;;;;5040268;28;20032;-53
2021/08/06 13:22:41;;;;;;;0.52;0.52;;;;;;;;;;5025409;28;20133;-52
2021/08/06 13:25:07;;;;;;;0.50;0.50;;;;;;;;;;5028968;28;20074;-53
2021/08/06 13:27:33;;;;;;;0.52;0.40;;;;;;;;;;5028233;28;20499;-53
2021/08/06 13:29:59;;;;;;;0.65;0.57;;;;;;;;;;5034427;28;20037;-52
2021/08/06 13:32:25;;;;;;;0.40;0.40;;;;;;;;;;5032188;28;20104;-52
2021/08/06 13:34:51;;;;;;;0.60;0.60;;;;;;;;;;5040475;28;20510;-51
2021/08/06 13:37:18;;;;;;;1.33;0.73;;;;;;;;;;5033837;28;20029;-52
2021/08/06 13:39:44;;;;;;;1.35;0.63;;;;;;;;;;5043525;28;20023;-53
2021/08/06 13:42:11;;;;;;;1.90;0.80;;;;;;;;;;5035635;28;20538;-50
2021/08/06 13:44:37;;;;;;;0.73;0.60;;;;;;;;;;5036833;28;20029;-48
2021/08/06 13:47:05;;;;;;;1.95;0.80;;;;;;;;;;5035125;28;20029;-53
2021/08/06 13:49:32;;;;;;;0.77;0.63;;;;;;;;;;5039898;28;20036;-51
2021/08/06 13:51:59;;;;;;;0.90;0.60;;;;;;;;;;5028856;28;20065;-52
2021/08/06 13:54:26;;;;;;;0.50;0.50;;;;;;;;;;5031510;28;20032;-54
2021/08/06 13:56:54;;;;;;;0.98;0.60;;;;;;;;;;5036472;28;20102;-53
2021/08/06 13:59:20;;;;;;;1.13;0.55;;;;;;;;;;5036227;28;20617;-53
2021/08/06 14:01:47;;;;;;;1.63;1.02;;;;;;;;;;5031231;28;20042;-52
2021/08/06 14:04:13;;;;;;;3.15;0.77;;;;;;;;;;5030514;28;20022;-53
2021/08/06 14:06:39;;;;;;;0.47;0.47;;;;;;;;;;5029789;28;20519;-52
2021/08/06 14:09:05;;;;;;;0.60;0.50;;;;;;;;;;5031286;28;20030;-53
2021/08/06 14:11:32;;;;;;;1.05;0.50;;;;;;;;;;5038849;28;20499;-51
2021/08/06 14:13:58;;;;;;;0.93;0.70;;;;;;;;;;5029463;28;20096;-53
2021/08/06 14:16:24;;;;;;;1.17;0.47;;;;;;;;;;5028576;28;20056;-53
2021/08/06 14:18:50;;;;;;;0.88;0.60;;;;;;;;;;5028460;28;20029;-53
2021/08/06 14:21:18;;;;;;;2.28;0.68;;;;;;;;;;5031420;28;20108;-51
2021/08/06 14:23:44;;;;;;;0.52;0.52;;;;;;;;;;5041623;28;20067;-53
2021/08/06 14:26:12;;;;;;;0.60;0.52;;;;;;;;;;5028448;28;20026;-52
2021/08/06 14:28:38;;;;;;;0.50;0.50;;;;;;;;;;5028253;28;20060;-51
2021/08/06 14:31:09;;;;;;;0.60;0.57;;;;;;;;;;5056633;28;20029;-51
2021/08/06 14:33:39;;;;;;;0.60;0.30;;;;;;;;;;5044384;28;20032;-52
2021/08/06 14:36:06;;;;;;;0.70;0.50;;;;;;;;;;5048223;28;20040;-52
2021/08/06 14:38:32;;;;;;;1.70;0.50;;;;;;;;;;5028277;28;20056;-50
2021/08/06 14:40:58;;;;;;;1.05;0.70;;;;;;;;;;5029433;28;20033;-53
2021/08/06 14:43:24;;;;;;;0.93;0.60;;;;;;;;;;5027810;28;20026;-52
2021/08/06 14:45:50;;;;;;;0.52;0.52;;;;;;;;;;5039810;28;20025;-51